Time;durP1;ratioP1;P1;durP2;ratioP2;P2;SDS_P1;SDS_P2;PMS_P1;PMS_P2;Temp;Humidity;BMP_temperature;BMP_pressure;BME280_temperature;BME280_humidity;BME280_pressure;Samples;Min_cycle;Max_cycle;Signal;HPM_P1;HPM_P2
2023/10/01 00:00:08;;;;;;;12.77;3.95;;;16.10;99.90;;;;;;5091197;28;20047;-66
2023/10/01 00:02:33;;;;;;;15.02;4.57;;;16.10;99.90;;;;;;5092061;28;20382;-67
2023/10/01 00:04:59;;;;;;;12.43;3.90;;;16.10;99.90;;;;;;5091267;28;20048;-66
2023/10/01 00:07:27;;;;;;;14.85;4.60;;;16.10;99.90;;;;;;5090704;28;20048;-71
2023/10/01 00:09:53;;;;;;;9.20;3.78;;;16.10;99.90;;;;;;5074282;28;20048;-67
2023/10/01 00:12:18;;;;;;;11.95;3.80;;;16.00;99.90;;;;;;5074675;28;20048;-67
2023/10/01 00:14:44;;;;;;;14.02;4.30;;;16.10;99.90;;;;;;5091757;28;20372;-67
2023/10/01 00:17:10;;;;;;;12.93;4.43;;;16.10;99.90;;;;;;5092381;28;20044;-67
2023/10/01 00:19:37;;;;;;;12.32;3.75;;;16.10;99.90;;;;;;5090534;28;20071;-66
2023/10/01 00:22:02;;;;;;;13.93;4.20;;;16.10;99.90;;;;;;5074456;28;20047;-66
2023/10/01 00:24:29;;;;;;;12.70;4.15;;;16.10;99.90;;;;;;5094469;28;20051;-67
2023/10/01 00:26:54;;;;;;;15.40;4.15;;;16.10;99.90;;;;;;5095167;28;20058;-66
2023/10/01 00:29:21;;;;;;;10.18;3.97;;;16.10;99.90;;;;;;5094808;28;20127;-67
2023/10/01 00:31:49;;;;;;;15.43;4.20;;;16.10;99.90;;;;;;5077502;28;20781;-68
2023/10/01 00:34:16;;;;;;;12.25;4.22;;;16.10;99.90;;;;;;5094781;28;20405;-67
2023/10/01 00:36:43;;;;;;;15.07;4.32;;;16.10;99.90;;;;;;5077478;28;20047;-67
2023/10/01 00:39:09;;;;;;;16.63;4.15;;;16.10;99.90;;;;;;5062018;28;20051;-67
2023/10/01 00:41:35;;;;;;;15.48;4.30;;;16.00;99.90;;;;;;5095526;28;20417;-68
2023/10/01 00:44:04;;;;;;;11.27;3.97;;;16.00;99.90;;;;;;5094814;28;20070;-67
2023/10/01 00:46:31;;;;;;;15.00;5.22;;;16.30;99.90;;;;;;5094428;28;20075;-71
2023/10/01 00:49:00;;;;;;;11.77;3.67;;;16.00;99.90;;;;;;5076956;28;20084;-67
2023/10/01 00:51:26;;;;;;;12.23;4.18;;;16.00;99.90;;;;;;5094559;28;20080;-68
2023/10/01 00:53:52;;;;;;;13.55;4.40;;;16.00;99.90;;;;;;5094117;28;20397;-68
2023/10/01 00:56:20;;;;;;;12.63;4.18;;;16.00;99.90;;;;;;5094442;28;20465;-68
2023/10/01 00:58:46;;;;;;;11.27;4.55;;;16.00;99.90;;;;;;5095220;28;20093;-67
2023/10/01 01:01:12;;;;;;;14.43;4.95;;;16.00;99.90;;;;;;5094379;28;20048;-68
2023/10/01 01:03:39;;;;;;;13.10;4.60;;;16.00;99.90;;;;;;5094808;28;20523;-66
2023/10/01 01:06:17;;;;;;;15.00;4.65;;;16.00;99.90;;;;;;5094237;28;20101;-68
2023/10/01 01:08:49;;;;;;;13.85;5.07;;;16.00;99.90;;;;;;5078717;28;20048;-68
2023/10/01 01:11:15;;;;;;;10.60;4.85;;;16.00;99.90;;;;;;5095385;28;20043;-68
2023/10/01 01:13:43;;;;;;;17.73;4.95;;;16.00;99.90;;;;;;5093724;28;20040;-69
2023/10/01 01:16:13;;;;;;;11.52;5.22;;;16.00;99.90;;;;;;5094932;28;20036;-71
2023/10/01 01:18:42;;;;;;;14.75;5.13;;;15.90;99.90;;;;;;5094788;28;20087;-68
2023/10/01 01:21:13;;;;;;;13.40;5.05;;;15.90;99.90;;;;;;5061354;28;20043;-67
2023/10/01 01:23:41;;;;;;;12.27;5.00;;;15.90;99.90;;;;;;5093586;28;20464;-67
2023/10/01 01:26:10;;;;;;;12.93;5.35;;;15.90;99.90;;;;;;5095100;28;20044;-67
2023/10/01 01:28:36;;;;;;;14.20;5.80;;;15.90;99.90;;;;;;5093572;28;20044;-70
2023/10/01 01:31:04;;;;;;;18.65;5.82;;;15.90;99.90;;;;;;5079549;28;20048;-67
2023/10/01 01:33:32;;;;;;;14.80;5.65;;;15.90;99.90;;;;;;5080009;28;20043;-67
2023/10/01 01:36:05;;;;;;;12.40;4.93;;;15.90;99.90;;;;;;5095789;28;20349;-66
2023/10/01 01:38:37;;;;;;;13.35;5.70;;;15.90;99.90;;;;;;5097341;28;20048;-66
2023/10/01 01:41:03;;;;;;;11.80;6.13;;;15.90;99.90;;;;;;5097066;28;20087;-67
2023/10/01 01:43:32;;;;;;;13.77;6.43;;;15.90;99.90;;;;;;5080212;28;20059;-66
2023/10/01 01:46:00;;;;;;;17.38;5.85;;;15.90;99.90;;;;;;5114640;28;20043;-68
2023/10/01 01:50:57;;;;;;;15.95;6.28;;;15.80;99.90;;;;;;5096560;28;20087;-68
2023/10/01 01:53:27;;;;;;;15.82;6.75;;;15.80;99.90;;;;;;5097012;28;20050;-68
2023/10/01 01:55:56;;;;;;;18.42;6.70;;;15.80;99.90;;;;;;5114387;28;20048;-68
2023/10/01 01:58:26;;;;;;;17.60;7.03;;;15.80;99.90;;;;;;5062785;28;20078;-68
2023/10/01 02:01:07;;;;;;;20.30;6.80;;;15.80;99.90;;;;;;5063288;28;20050;-68
2023/10/01 02:03:37;;;;;;;14.48;6.78;;;15.80;99.90;;;;;;5081952;28;20431;-68
2023/10/01 02:06:07;;;;;;;15.15;6.45;;;15.80;99.90;;;;;;5096128;28;20114;-67
2023/10/01 02:08:48;;;;;;;15.25;6.68;;;15.80;99.90;;;;;;5096301;28;20571;-67
2023/10/01 02:11:14;;;;;;;14.75;7.53;;;15.80;99.90;;;;;;5096580;28;20058;-68
2023/10/01 02:13:41;;;;;;;17.50;7.28;;;15.80;99.90;;;;;;5114410;28;20547;-67
2023/10/01 02:19:19;;;;;;;16.10;7.70;;;15.80;99.90;;;;;;5086581;28;20130;-67
2023/10/01 02:21:52;;;;;;;18.27;7.43;;;15.80;99.90;;;;;;5096091;28;20051;-72
2023/10/01 02:24:23;;;;;;;15.40;7.20;;;15.80;99.90;;;;;;5114285;28;20082;-68
2023/10/01 02:26:53;;;;;;;18.20;7.15;;;15.80;99.90;;;;;;5096031;28;20101;-68
2023/10/01 02:29:24;;;;;;;15.57;7.63;;;15.80;99.90;;;;;;5095883;28;20455;-68
2023/10/01 02:31:56;;;;;;;18.98;7.78;;;15.80;99.90;;;;;;5113023;28;20397;-67
2023/10/01 02:34:29;;;;;;;15.50;7.78;;;15.80;99.90;;;;;;5079525;28;20055;-67
2023/10/01 02:36:56;;;;;;;19.55;7.70;;;15.80;99.90;;;;;;5113274;28;20116;-67
2023/10/01 02:39:28;;;;;;;17.92;8.20;;;15.80;99.90;;;;;;5095801;28;20051;-66
2023/10/01 02:44:47;;;;;;;16.75;8.10;;;15.80;99.90;;;;;;5095657;28;20058;-67
2023/10/01 02:47:16;;;;;;;22.10;9.07;;;15.80;99.90;;;;;;5079291;28;20062;-67
2023/10/01 02:49:51;;;;;;;24.48;8.10;;;15.80;99.90;;;;;;5079228;28;20047;-67
2023/10/01 02:52:18;;;;;;;21.77;8.38;;;15.70;99.90;;;;;;5078773;28;20070;-68
2023/10/01 02:54:47;;;;;;;20.40;9.10;;;15.70;99.90;;;;;;5113731;28;20121;-67
2023/10/01 02:57:23;;;;;;;16.60;7.63;;;15.70;99.90;;;;;;5095056;28;20081;-68
2023/10/01 03:00:20;;;;;;;15.45;7.93;;;15.70;99.90;;;;;;5095482;28;20055;-70
2023/10/01 03:02:51;;;;;;;19.77;8.20;;;15.70;99.90;;;;;;5078490;28;20442;-67
2023/10/01 03:05:28;;;;;;;15.43;7.75;;;15.70;99.90;;;;;;5095722;28;20048;-67
2023/10/01 03:08:04;;;;;;;17.75;8.13;;;15.70;99.90;;;;;;5095111;28;20087;-66
2023/10/01 03:10:32;;;;;;;16.38;8.32;;;15.70;99.90;;;;;;5113320;28;20409;-68
2023/10/01 03:13:14;;;;;;;16.48;7.95;;;15.70;99.90;;;;;;5078608;28;20049;-68
2023/10/01 03:15:41;;;;;;;15.43;8.05;;;15.70;99.90;;;;;;5080370;28;20073;-67
2023/10/01 03:18:55;;;;;;;14.02;7.45;;;15.70;99.90;;;;;;5078119;28;20389;-68
2023/10/01 03:29:13;;;;;;;19.85;8.38;;;15.60;99.90;;;;;;5095256;28;20048;-68
2023/10/01 03:31:20;;;;;;;17.55;7.78;;;15.60;99.90;;;;;;5094457;28;20056;-68
2023/10/01 03:33:47;;;;;;;15.05;8.38;;;15.60;99.90;;;;;;5061392;28;20449;-68
2023/10/01 03:36:16;;;;;;;15.40;8.38;;;15.60;99.90;;;;;;5078131;28;20058;-67
2023/10/01 03:38:43;;;;;;;16.25;7.90;;;15.60;99.90;;;;;;5112635;28;20492;-67
2023/10/01 03:41:20;;;;;;;18.75;8.50;;;15.70;99.90;;;;;;5077750;28;20051;-67
2023/10/01 03:43:47;;;;;;;18.80;8.18;;;15.60;99.90;;;;;;5112884;28;20118;-67
2023/10/01 03:46:15;;;;;;;16.38;7.95;;;15.60;99.90;;;;;;5112358;28;20493;-67
2023/10/01 03:51:29;;;;;;;14.27;7.25;;;15.60;99.90;;;;;;5094843;28;20087;-66
2023/10/01 03:53:59;;;;;;;15.18;8.00;;;15.60;99.90;;;;;;5112902;28;20082;-67
2023/10/01 03:56:30;;;;;;;11.63;7.75;;;15.60;99.90;;;;;;5078487;28;20047;-68
2023/10/01 03:58:56;;;;;;;15.32;8.00;;;15.60;99.90;;;;;;5098070;28;20447;-67
2023/10/01 04:01:26;;;;;;;14.60;7.60;;;15.60;99.90;;;;;;5098417;28;20039;-68
2023/10/01 04:03:52;;;;;;;16.02;8.25;;;15.60;99.90;;;;;;5099151;28;20052;-68
2023/10/01 04:06:21;;;;;;;15.98;8.35;;;15.60;99.90;;;;;;5081464;28;20100;-68
2023/10/01 04:08:48;;;;;;;13.60;7.53;;;15.60;99.90;;;;;;5082772;28;20094;-68
2023/10/01 04:11:15;;;;;;;13.35;8.25;;;15.60;99.90;;;;;;5098255;28;20122;-68
2023/10/01 04:13:41;;;;;;;12.75;7.85;;;15.60;99.90;;;;;;5098739;28;20065;-68
2023/10/01 04:16:15;;;;;;;15.98;8.15;;;15.60;99.90;;;;;;5081236;28;20036;-68
2023/10/01 04:18:45;;;;;;;17.48;8.65;;;15.60;99.90;;;;;;5083092;28;20054;-67
2023/10/01 04:23:47;;;;;;;15.63;8.18;;;15.60;99.90;;;;;;5081605;28;20075;-67
2023/10/01 04:26:16;;;;;;;13.98;8.15;;;15.60;99.90;;;;;;5097953;28;20151;-66
2023/10/01 04:28:44;;;;;;;15.00;8.55;;;15.60;99.90;;;;;;5116390;28;20051;-67
2023/10/01 04:31:19;;;;;;;17.17;8.18;;;15.60;99.90;;;;;;5097681;28;20055;-68
2023/10/01 04:33:50;;;;;;;16.13;8.45;;;15.60;99.90;;;;;;5098660;28;20055;-67
2023/10/01 04:36:16;;;;;;;14.50;7.90;;;15.60;99.90;;;;;;5097750;28;20087;-67
2023/10/01 04:38:48;;;;;;;17.75;8.00;;;15.60;99.90;;;;;;5098430;28;20116;-67
2023/10/01 04:41:22;;;;;;;15.88;8.32;;;15.60;99.90;;;;;;5097350;28;20043;-68
2023/10/01 04:44:06;;;;;;;14.40;7.90;;;15.60;99.90;;;;;;5098113;28;20139;-67
2023/10/01 04:46:37;;;;;;;15.38;8.02;;;15.60;99.90;;;;;;5080977;28;20050;-68
2023/10/01 04:49:26;;;;;;;16.45;7.97;;;15.60;99.90;;;;;;5098358;28;20047;-67
2023/10/01 04:52:01;;;;;;;15.27;8.05;;;15.60;99.90;;;;;;5081018;28;20047;-67
2023/10/01 04:54:28;;;;;;;14.70;8.20;;;15.60;99.90;;;;;;5081957;28;20488;-67
2023/10/01 04:56:57;;;;;;;14.40;8.07;;;15.50;99.90;;;;;;5097477;28;20039;-67
2023/10/01 04:59:24;;;;;;;15.70;8.38;;;15.60;99.90;;;;;;5097188;28;20043;-67
2023/10/01 05:01:56;;;;;;;16.23;8.25;;;15.60;99.90;;;;;;5080881;28;20043;-67
2023/10/01 05:04:32;;;;;;;14.55;8.00;;;15.50;99.90;;;;;;5097380;28;20085;-67
2023/10/01 05:07:04;;;;;;;16.38;8.57;;;15.50;99.90;;;;;;5097579;28;20116;-68
2023/10/01 05:09:33;;;;;;;12.82;7.78;;;15.50;99.90;;;;;;5080867;28;20112;-69
2023/10/01 05:12:01;;;;;;;16.17;8.90;;;15.50;99.90;;;;;;5097287;28;20433;-68
2023/10/01 05:14:28;;;;;;;12.93;8.13;;;15.50;99.90;;;;;;5080135;28;20108;-67
2023/10/01 05:16:54;;;;;;;14.75;8.45;;;15.40;99.90;;;;;;5115424;28;20044;-67
2023/10/01 05:19:23;;;;;;;17.95;8.90;;;15.40;99.90;;;;;;5096811;28;20072;-67
2023/10/01 05:21:50;;;;;;;15.10;8.88;;;15.40;99.90;;;;;;5080535;28;20142;-67
2023/10/01 05:24:35;;;;;;;18.08;9.18;;;15.40;99.90;;;;;;5114973;28;20054;-68
2023/10/01 05:27:18;;;;;;;19.20;8.85;;;15.40;99.90;;;;;;5097590;28;20131;-67
2023/10/01 05:29:46;;;;;;;17.13;8.63;;;15.40;99.90;;;;;;5096645;28;20047;-66
2023/10/01 05:32:13;;;;;;;12.93;7.95;;;15.30;99.90;;;;;;5096571;28;20499;-70
2023/10/01 05:34:45;;;;;;;15.48;7.82;;;15.30;99.90;;;;;;5096857;28;20052;-68
2023/10/01 05:37:24;;;;;;;15.68;7.82;;;15.30;99.90;;;;;;5096924;28;20052;-70
2023/10/01 05:39:57;;;;;;;13.60;8.20;;;15.20;99.90;;;;;;5079940;28;20043;-69
2023/10/01 05:42:28;;;;;;;16.48;8.57;;;15.20;99.90;;;;;;5096875;28;20100;-68
2023/10/01 05:44:59;;;;;;;17.58;8.60;;;15.20;99.90;;;;;;5097114;28;20123;-69
2023/10/01 05:47:41;;;;;;;14.25;8.25;;;15.20;99.90;;;;;;5063956;28;20043;-68
2023/10/01 05:50:10;;;;;;;18.95;8.73;;;15.20;99.90;;;;;;5079961;28;20085;-68
2023/10/01 05:52:40;;;;;;;20.13;8.30;;;15.20;99.90;;;;;;5096721;28;20154;-68
2023/10/01 05:55:12;;;;;;;15.90;8.50;;;15.20;99.90;;;;;;5096770;28;20052;-70
2023/10/01 05:57:38;;;;;;;14.43;8.38;;;15.20;99.90;;;;;;5114543;28;20130;-68
2023/10/01 06:00:16;;;;;;;16.15;7.63;;;15.10;99.90;;;;;;5114800;28;20131;-68
2023/10/01 06:02:47;;;;;;;14.73;8.90;;;15.20;99.90;;;;;;5097136;28;20059;-69
2023/10/01 06:05:32;;;;;;;14.23;8.32;;;15.10;99.90;;;;;;5118077;28;20055;-67
2023/10/01 06:07:59;;;;;;;14.75;8.00;;;15.10;99.90;;;;;;5101296;28;20048;-67
2023/10/01 06:10:28;;;;;;;21.00;9.10;;;15.10;99.90;;;;;;5096117;28;20139;-68
2023/10/01 06:12:56;;;;;;;22.73;8.10;;;15.10;99.90;;;;;;5096706;28;20490;-68
2023/10/01 06:15:25;;;;;;;14.80;8.43;;;15.10;99.90;;;;;;5062602;28;20054;-67
2023/10/01 06:17:51;;;;;;;14.82;7.55;;;15.10;99.90;;;;;;5096260;28;20050;-69
2023/10/01 06:20:30;;;;;;;16.52;8.98;;;15.10;99.90;;;;;;5095780;28;20043;-68
2023/10/01 06:22:59;;;;;;;17.55;8.32;;;15.10;99.90;;;;;;5096257;28;20109;-69
2023/10/01 06:25:37;;;;;;;12.73;7.97;;;15.10;99.90;;;;;;5079183;28;20402;-69
2023/10/01 06:28:10;;;;;;;14.52;8.35;;;15.10;99.90;;;;;;5096276;28;20054;-68
2023/10/01 06:30:40;;;;;;;16.02;8.07;;;15.10;99.90;;;;;;5113714;28;20047;-70
2023/10/01 06:33:24;;;;;;;18.80;7.75;;;15.10;99.90;;;;;;5095695;28;20059;-68
2023/10/01 06:38:38;;;;;;;16.23;8.32;;;15.10;99.90;;;;;;5095609;28;20130;-68
2023/10/01 06:41:06;;;;;;;20.90;8.05;;;15.10;99.90;;;;;;5113398;28;20039;-68
2023/10/01 06:43:44;;;;;;;17.08;8.02;;;15.10;99.90;;;;;;5113263;28;20412;-67
2023/10/01 06:46:13;;;;;;;14.55;7.72;;;15.10;99.90;;;;;;5095723;28;20059;-68
2023/10/01 06:48:39;;;;;;;15.15;8.93;;;15.10;99.90;;;;;;5095305;28;20061;-69
2023/10/01 06:51:06;;;;;;;15.07;8.27;;;15.20;99.90;;;;;;5062194;28;20092;-68
2023/10/01 06:53:45;;;;;;;17.88;8.27;;;15.20;99.90;;;;;;5113222;28;20085;-68
2023/10/01 06:56:15;;;;;;;14.90;8.18;;;15.20;99.90;;;;;;5078790;28;20052;-68
2023/10/01 06:58:41;;;;;;;17.67;8.45;;;15.30;99.90;;;;;;5095238;28;20048;-68
2023/10/01 07:01:34;;;;;;;15.30;8.07;;;15.30;99.90;;;;;;5095209;28;20059;-68
2023/10/01 07:03:54;;;;;;;17.63;8.30;;;15.30;99.90;;;;;;5094781;28;20108;-68
2023/10/01 07:06:21;;;;;;;15.65;7.82;;;15.30;99.90;;;;;;5095026;28;20051;-68
2023/10/01 07:08:48;;;;;;;18.05;7.55;;;15.40;99.90;;;;;;5078383;28;20043;-67
2023/10/01 07:11:18;;;;;;;12.50;7.63;;;15.40;99.90;;;;;;5094925;28;20503;-67
2023/10/01 07:13:44;;;;;;;18.95;8.25;;;15.40;99.90;;;;;;5078584;28;20039;-68
2023/10/01 07:16:10;;;;;;;15.93;7.43;;;15.50;99.90;;;;;;5078316;28;20209;-68
2023/10/01 07:18:38;;;;;;;15.60;8.05;;;15.60;99.90;;;;;;5078141;28;20043;-68
2023/10/01 07:21:11;;;;;;;19.73;8.93;;;15.60;99.90;;;;;;5078730;28;20054;-68
2023/10/01 07:23:38;;;;;;;13.50;7.82;;;15.60;99.90;;;;;;5094717;28;20062;-67
2023/10/01 07:26:05;;;;;;;19.25;8.23;;;15.60;99.90;;;;;;5094960;28;20075;-67
2023/10/01 07:28:31;;;;;;;15.90;7.35;;;15.70;99.90;;;;;;5078152;28;20048;-67
2023/10/01 07:31:01;;;;;;;20.48;7.78;;;15.70;99.90;;;;;;5113028;28;20389;-67
2023/10/01 07:33:31;;;;;;;17.98;7.63;;;15.80;99.90;;;;;;5094726;28;20070;-67
2023/10/01 07:35:59;;;;;;;15.63;7.90;;;15.80;99.90;;;;;;5094478;28;20050;-67
2023/10/01 07:38:26;;;;;;;22.13;7.78;;;15.90;99.90;;;;;;5094718;28;20405;-67
2023/10/01 07:40:57;;;;;;;15.90;7.88;;;15.90;99.90;;;;;;5061128;28;20532;-67
2023/10/01 07:43:26;;;;;;;17.20;8.20;;;15.90;99.90;;;;;;5095590;28;20035;-68
2023/10/01 07:45:55;;;;;;;16.95;8.07;;;16.00;99.90;;;;;;5094320;28;20075;-67
2023/10/01 07:48:23;;;;;;;14.95;7.20;;;16.00;99.90;;;;;;5094517;28;20103;-67
2023/10/01 07:50:51;;;;;;;16.35;7.63;;;16.00;99.90;;;;;;5077674;28;20055;-67
2023/10/01 07:53:18;;;;;;;14.60;7.90;;;16.00;99.90;;;;;;5112634;28;20130;-68
2023/10/01 07:55:48;;;;;;;18.50;8.55;;;16.00;99.90;;;;;;5094241;28;20105;-67
2023/10/01 07:58:44;;;;;;;17.33;7.57;;;16.00;99.90;;;;;;5112625;28;20047;-68
2023/10/01 08:01:45;;;;;;;17.55;7.43;;;16.00;99.90;;;;;;5094611;28;20110;-68
2023/10/01 08:04:08;;;;;;;15.55;7.30;;;16.00;99.90;;;;;;5077641;28;20090;-69
2023/10/01 08:06:43;;;;;;;18.75;7.35;;;16.00;99.90;;;;;;5094334;28;20441;-72
2023/10/01 08:09:13;;;;;;;16.45;6.70;;;15.90;99.90;;;;;;5077835;28;20086;-66
2023/10/01 08:14:26;;;;;;;19.58;7.20;;;16.00;99.90;;;;;;5080347;28;20126;-67
2023/10/01 08:17:00;;;;;;;18.80;7.30;;;16.00;99.90;;;;;;5093922;28;20046;-68
2023/10/01 08:19:41;;;;;;;15.52;7.35;;;16.00;99.90;;;;;;5095328;28;20381;-67
2023/10/01 08:22:13;;;;;;;16.25;6.72;;;16.00;99.90;;;;;;5063883;28;20374;-68
2023/10/01 08:24:45;;;;;;;13.07;6.70;;;16.10;99.90;;;;;;5077495;28;20446;-69
2023/10/01 08:27:31;;;;;;;15.60;7.95;;;16.10;99.90;;;;;;5094727;28;20051;-68
2023/10/01 08:30:18;;;;;;;14.82;7.10;;;16.10;99.90;;;;;;5094003;28;20112;-67
2023/10/01 08:33:11;;;;;;;15.77;8.18;;;16.20;99.90;;;;;;5076706;28;20069;-67
2023/10/01 08:35:35;;;;;;;19.25;8.23;;;16.20;99.90;;;;;;5080565;28;20048;-68
2023/10/01 08:38:01;;;;;;;15.75;7.28;;;16.30;99.90;;;;;;5111807;28;20066;-69
2023/10/01 08:40:27;;;;;;;14.15;7.30;;;16.30;99.90;;;;;;5093943;28;20103;-69
2023/10/01 08:42:58;;;;;;;17.58;7.75;;;16.30;99.90;;;;;;5077010;28;20142;-68
2023/10/01 08:45:37;;;;;;;14.35;7.13;;;16.40;99.90;;;;;;5115983;28;20064;-68
2023/10/01 08:48:07;;;;;;;16.08;6.97;;;16.40;99.90;;;;;;5115757;28;20073;-67
2023/10/01 08:50:40;;;;;;;15.82;7.18;;;16.50;99.90;;;;;;5080923;28;20382;-68
2023/10/01 08:53:11;;;;;;;16.20;7.40;;;16.50;99.90;;;;;;5115740;28;20073;-68
2023/10/01 09:00:56;;;;;;;17.98;7.22;;;16.60;99.90;;;;;;5096924;28;20048;-68
2023/10/01 09:03:30;;;;;;;25.25;7.80;;;16.60;99.90;;;;;;5116094;28;20445;-68
2023/10/01 09:06:24;;;;;;;12.80;6.53;;;16.60;99.90;;;;;;5080370;28;20048;-68
2023/10/01 09:08:54;;;;;;;14.50;6.97;;;16.70;99.90;;;;;;5083021;28;20500;-69
2023/10/01 09:11:35;;;;;;;17.88;7.55;;;16.70;99.90;;;;;;5097259;28;20051;-68
2023/10/01 09:14:20;;;;;;;14.80;7.60;;;16.80;99.90;;;;;;5115210;28;20051;-68
2023/10/01 09:16:57;;;;;;;19.17;6.72;;;16.90;99.90;;;;;;5096974;28;20047;-71
2023/10/01 09:19:31;;;;;;;14.10;7.32;;;17.00;99.90;;;;;;5115514;28;20427;-67
2023/10/01 09:22:22;;;;;;;15.35;6.70;;;17.20;99.90;;;;;;5080071;28;20083;-69
2023/10/01 09:25:01;;;;;;;15.35;6.82;;;17.40;99.90;;;;;;5079943;28;20240;-70
2023/10/01 09:27:30;;;;;;;15.98;6.78;;;17.50;99.90;;;;;;5065738;28;20104;-68
2023/10/01 09:30:26;;;;;;;18.30;7.88;;;17.70;99.90;;;;;;5114862;28;20101;-68
2023/10/01 09:32:51;;;;;;;16.23;7.55;;;17.90;99.90;;;;;;5096465;28;20059;-69
2023/10/01 09:35:38;;;;;;;15.90;7.28;;;18.10;99.90;;;;;;5115253;28;20047;-69
2023/10/01 09:38:11;;;;;;;14.05;6.50;;;18.20;99.90;;;;;;5096554;28;20127;-68
2023/10/01 09:40:42;;;;;;;16.63;6.65;;;18.30;99.90;;;;;;5097032;28;20050;-68
2023/10/01 09:43:19;;;;;;;17.00;7.13;;;18.40;99.90;;;;;;5096664;28;20075;-67
2023/10/01 09:45:46;;;;;;;15.68;7.68;;;18.50;99.90;;;;;;5096818;28;20051;-67
2023/10/01 09:48:30;;;;;;;15.45;7.35;;;18.70;99.90;;;;;;5114511;28;20039;-67
2023/10/01 09:51:03;;;;;;;19.42;7.47;;;18.80;99.90;;;;;;5096721;28;20047;-67
2023/10/01 09:53:37;;;;;;;19.92;7.90;;;18.80;99.90;;;;;;5096726;28;20107;-67
2023/10/01 09:56:04;;;;;;;22.67;7.50;;;18.90;99.90;;;;;;5113206;28;20036;-66
2023/10/01 09:58:32;;;;;;;19.73;7.45;;;18.90;99.90;;;;;;5096313;28;20095;-67
2023/10/01 10:01:01;;;;;;;17.10;7.80;;;18.90;99.90;;;;;;5078979;28;20052;-66
2023/10/01 10:03:37;;;;;;;17.30;7.43;;;19.00;99.90;;;;;;5079120;28;20056;-67
2023/10/01 10:06:07;;;;;;;20.85;7.70;;;19.10;99.90;;;;;;5096069;28;20043;-66
2023/10/01 10:08:39;;;;;;;16.13;7.90;;;19.20;99.90;;;;;;5079591;28;20605;-66
2023/10/01 10:11:13;;;;;;;16.83;7.30;;;19.20;99.90;;;;;;5095495;28;20048;-66
2023/10/01 10:13:48;;;;;;;20.58;8.75;;;19.30;99.90;;;;;;5096391;28;20156;-66
2023/10/01 10:16:33;;;;;;;17.90;7.72;;;19.40;99.90;;;;;;5113501;28;20485;-67
2023/10/01 10:19:21;;;;;;;16.85;7.65;;;19.50;99.90;;;;;;5113845;28;20153;-66
2023/10/01 10:22:50;;;;;;;21.48;7.68;;;19.70;99.90;;;;;;5113993;28;20044;-66
2023/10/01 10:24:48;;;;;;;18.63;7.43;;;19.90;99.90;;;;;;5088597;28;20447;-66
2023/10/01 10:27:34;;;;;;;19.27;8.05;;;20.10;99.90;;;;;;5095662;28;20552;-66
2023/10/01 10:30:05;;;;;;;19.48;7.63;;;20.30;99.90;;;;;;5095340;28;20051;-67
2023/10/01 10:32:41;;;;;;;20.00;8.02;;;20.50;99.90;;;;;;5094798;28;20059;-66
2023/10/01 10:35:12;;;;;;;21.90;8.05;;;20.60;99.90;;;;;;5113354;28;20057;-66
2023/10/01 10:37:44;;;;;;;18.48;7.30;;;20.60;99.90;;;;;;5091600;28;20052;-67
2023/10/01 10:40:22;;;;;;;19.02;7.80;;;20.70;99.90;;;;;;5112886;28;20043;-67
2023/10/01 10:43:00;;;;;;;18.73;7.50;;;20.70;99.90;;;;;;5095405;28;20051;-67
2023/10/01 10:45:42;;;;;;;19.17;8.02;;;20.70;99.90;;;;;;5113333;28;20048;-67
2023/10/01 10:48:21;;;;;;;16.58;6.68;;;20.70;99.90;;;;;;5094723;28;20135;-66
2023/10/01 10:50:49;;;;;;;20.02;7.90;;;20.70;99.90;;;;;;5095260;28;20087;-66
2023/10/01 10:53:23;;;;;;;18.02;8.20;;;20.70;99.90;;;;;;5112917;28;20397;-66
2023/10/01 10:56:00;;;;;;;15.93;7.35;;;20.70;99.90;;;;;;5094759;28;20095;-65
2023/10/01 10:58:28;;;;;;;17.05;7.70;;;20.70;99.90;;;;;;5112950;28;20396;-65
2023/10/01 11:00:57;;;;;;;22.02;7.78;;;20.80;99.90;;;;;;5113266;28;20052;-66
2023/10/01 11:03:42;;;;;;;17.23;6.80;;;20.80;99.90;;;;;;5093963;28;20473;-67
2023/10/01 11:06:29;;;;;;;17.75;7.70;;;20.80;99.90;;;;;;5111518;28;20168;-67
2023/10/01 11:08:56;;;;;;;21.05;8.00;;;20.70;99.90;;;;;;5094463;28;20500;-67
2023/10/01 11:11:29;;;;;;;17.20;7.40;;;20.60;99.90;;;;;;5093575;28;20039;-66
2023/10/01 11:14:01;;;;;;;16.13;7.20;;;20.60;99.90;;;;;;5094586;28;20036;-66
2023/10/01 11:16:36;;;;;;;18.65;7.70;;;20.50;99.90;;;;;;5112435;28;20053;-66
2023/10/01 11:19:13;;;;;;;17.50;7.55;;;20.50;99.90;;;;;;5093858;28;20055;-65
2023/10/01 11:22:09;;;;;;;18.13;7.30;;;20.40;99.90;;;;;;5094351;28;20062;-65
2023/10/01 11:24:36;;;;;;;15.25;7.28;;;20.40;99.90;;;;;;5112418;28;20111;-65
2023/10/01 11:27:24;;;;;;;19.00;8.10;;;20.40;99.90;;;;;;5094194;28;20493;-67
2023/10/01 11:30:15;;;;;;;16.00;7.07;;;20.50;99.90;;;;;;5094346;28;20107;-64
2023/10/01 11:35:59;;;;;;;21.10;8.32;;;20.60;99.90;;;;;;5094060;28;20205;-68
2023/10/01 11:38:25;;;;;;;16.38;7.43;;;20.70;99.90;;;;;;5112101;28;20039;-66
2023/10/01 11:41:09;;;;;;;15.48;7.60;;;20.70;99.90;;;;;;5112451;28;20051;-67
2023/10/01 11:43:42;;;;;;;16.95;7.57;;;20.70;99.90;;;;;;5094115;28;20048;-67
2023/10/01 11:46:19;;;;;;;18.80;8.35;;;20.80;99.90;;;;;;5093935;28;20043;-68
2023/10/01 11:49:14;;;;;;;16.98;8.05;;;20.80;99.90;;;;;;5112305;28;20047;-67
2023/10/01 11:51:54;;;;;;;14.60;7.30;;;20.80;99.90;;;;;;5082935;28;20395;-67
2023/10/01 11:54:20;;;;;;;16.00;7.03;;;20.90;99.90;;;;;;5094011;28;20478;-65
2023/10/01 11:57:06;;;;;;;16.45;7.78;;;20.90;99.90;;;;;;5112169;28;20058;-66
2023/10/01 11:59:35;;;;;;;20.35;7.85;;;21.00;99.90;;;;;;5111874;28;20047;-68
2023/10/01 12:02:20;;;;;;;17.27;7.90;;;21.00;99.90;;;;;;5077328;28;20601;-67
2023/10/01 12:04:59;;;;;;;19.83;7.75;;;21.00;99.90;;;;;;5064002;28;20130;-68
2023/10/01 12:07:40;;;;;;;19.13;7.40;;;20.90;99.90;;;;;;5111879;28;20054;-66
2023/10/01 12:10:07;;;;;;;19.30;7.45;;;20.90;99.90;;;;;;5093910;28;20054;-67
2023/10/01 12:12:37;;;;;;;16.52;7.90;;;21.00;99.90;;;;;;5093398;28;20113;-67
2023/10/01 12:17:52;;;;;;;18.88;7.88;;;21.00;99.90;;;;;;5093463;28;20040;-67
2023/10/01 12:20:28;;;;;;;16.80;8.15;;;21.00;99.90;;;;;;5115291;28;20196;-66
2023/10/01 12:23:13;;;;;;;16.10;7.00;;;21.10;99.90;;;;;;5114058;28;20333;-67
2023/10/01 12:25:52;;;;;;;17.13;8.13;;;21.20;99.90;;;;;;5115931;28;20047;-67
2023/10/01 12:28:24;;;;;;;17.25;7.72;;;21.20;99.90;;;;;;5097644;28;20047;-67
2023/10/01 12:30:57;;;;;;;15.43;7.05;;;21.20;99.90;;;;;;5098050;28;20404;-67
2023/10/01 12:33:24;;;;;;;15.85;8.02;;;21.20;99.90;;;;;;5096523;28;20063;-66
2023/10/01 12:35:50;;;;;;;14.15;7.53;;;21.20;99.90;;;;;;5115561;28;20100;-66
2023/10/01 12:40:49;;;;;;;19.25;8.18;;;21.30;99.90;;;;;;5097549;28;20397;-66
2023/10/01 12:45:59;;;;;;;16.55;7.97;;;21.30;99.90;;;;;;5097335;28;20115;-66
2023/10/01 12:48:25;;;;;;;17.55;7.75;;;21.40;99.90;;;;;;5096874;28;20517;-67
2023/10/01 12:51:00;;;;;;;19.73;7.80;;;21.50;99.90;;;;;;5080511;28;20465;-66
2023/10/01 12:53:47;;;;;;;15.98;8.27;;;21.60;99.90;;;;;;5096871;28;20077;-66
2023/10/01 12:56:14;;;;;;;17.25;7.82;;;21.60;99.90;;;;;;5097391;28;20048;-67
2023/10/01 12:58:51;;;;;;;18.17;8.93;;;21.60;99.90;;;;;;5080179;28;20101;-66
2023/10/01 13:01:34;;;;;;;15.02;7.05;;;21.60;99.90;;;;;;5114763;28;20484;-66
2023/10/01 13:06:48;;;;;;;16.25;8.30;;;21.70;99.90;;;;;;5097390;28;20043;-65
2023/10/01 13:12:06;;;;;;;17.08;7.65;;;21.70;99.90;;;;;;5097235;28;20135;-66
2023/10/01 13:14:32;;;;;;;15.48;8.10;;;21.80;99.90;;;;;;5096632;28;20035;-66
2023/10/01 13:17:01;;;;;;;17.60;8.20;;;21.80;99.90;;;;;;5115018;28;20044;-67
2023/10/01 13:19:33;;;;;;;19.63;8.68;;;21.80;99.90;;;;;;5096356;28;20036;-68
2023/10/01 13:22:04;;;;;;;19.85;8.35;;;21.90;99.90;;;;;;5115057;28;20054;-67
2023/10/01 13:24:31;;;;;;;20.23;8.82;;;21.90;99.90;;;;;;5114751;28;20438;-68
2023/10/01 13:27:10;;;;;;;20.73;8.45;;;22.00;99.90;;;;;;5097045;28;20477;-67
2023/10/01 13:29:40;;;;;;;19.38;8.57;;;22.00;99.90;;;;;;5096309;28;20558;-67
2023/10/01 13:32:15;;;;;;;19.60;8.27;;;22.00;99.90;;;;;;5114608;28;20063;-67
2023/10/01 13:34:54;;;;;;;17.75;8.30;;;22.00;99.90;;;;;;5080869;28;20104;-68
2023/10/01 13:40:28;;;;;;;13.98;7.15;;;21.80;99.90;;;;;;5081608;28;20404;-68
2023/10/01 14:10:25;;;;;;;24.02;8.85;;;21.80;99.90;;;;;;5095658;28;19919;-68
2023/10/01 14:12:56;;;;;;;18.98;8.60;;;21.90;99.90;;;;;;5096056;28;20039;-68
2023/10/01 14:15:25;;;;;;;18.35;9.15;;;21.70;99.90;;;;;;5113495;28;20128;-68
2023/10/01 14:17:56;;;;;;;20.38;8.80;;;21.90;99.90;;;;;;5113825;28;20079;-67
2023/10/01 14:23:09;;;;;;;20.83;9.52;;;21.90;99.90;;;;;;5112822;28;20104;-66